PWSweather.com
Personal Weather Stations
Station Observations
KCTCOLEB1
Sandy Brook, Colebrook, CT 06021

Sandy BrookColebrook, CT 06021

Lat: 42.0018, Lon: -73.0825

Elevation: 935

Station Type: Davis Vantage Pro2 + Solar + UV

Latest ConditionsUpdated 6:50:01 PM EDT Wednesday, Aug 15, 2018
Currently Today's Max Today's Min Today's Average
Temperature 76.2°F24.6°C 86.8°F30.4°C 62.9°F17.2°C 73.0°F22.8°C
Dew Point 71.7°F22.1°C 73.6°F23.1°C 62.0°F16.7°C 67.8°F19.9°C
Winds Calm Calm 2.3 mph -3.7 kmh - - 0.2 mph 0.3 kmh
Wind Gusts -- 3.5 mph5.6 kmh - -
Humidity 86% 99% 59% 86%
Pressure 29.85 in1010.8 mb 29.86 in1011.2 mb 29.77 in1008.1 mb -
Precipitation - 0.31 in7.9 mm - -
Hour Temp Dew Point Humidity Winds Wind Gusts Pressure Precip Precip Rate Daily Precip Total
06:50 PM 76.2°F24.6°C 71.7°F22.1°C 86% Calm Calm -- 29.85 in1010.8 mb - 0.00 in0.0 mm 0.31 in7.9 mm
06:40 PM 76.7°F24.8°C 71.8°F22.1°C 85% Calm Calm -- 29.85 in1010.8 mb - 0.00 in0.0 mm 0.31 in7.9 mm
06:30 PM 76.9°F24.9°C 71.7°F22.1°C 84% Calm Calm -- 29.85 in1010.8 mb - 0.00 in0.0 mm 0.31 in7.9 mm
06:20 PM 77.2°F25.1°C 71.7°F22.1°C 83% Calm Calm -- 29.85 in1010.8 mb - 0.00 in0.0 mm 0.31 in7.9 mm
06:10 PM 77.4°F25.2°C 71.5°F21.9°C 82% Calm Calm -- 29.85 in1010.8 mb - 0.00 in0.0 mm 0.31 in7.9 mm
06:00 PM 77.6°F25.3°C 71.3°F21.8°C 81% Calm Calm -- 29.85 in1010.8 mb - 0.00 in0.0 mm 0.31 in7.9 mm
05:50 PM 77.9°F25.5°C 71.2°F21.8°C 80% Calm Calm -- 29.84 in1010.5 mb - 0.00 in0.0 mm 0.31 in7.9 mm
05:40 PM 78.4°F25.8°C 71.7°F22.1°C 80% Calm Calm -- 29.85 in1010.8 mb - 0.00 in0.0 mm 0.31 in7.9 mm
05:30 PM 78.9°F26.1°C 71.5°F21.9°C 78% Calm Calm 1.2 mph1.9 kmh 29.85 in1010.8 mb - 0.00 in0.0 mm 0.31 in7.9 mm
05:20 PM 79.7°F26.5°C 71.8°F22.1°C 77% Calm Calm -- 29.85 in1010.8 mb - 0.00 in0.0 mm 0.31 in7.9 mm
05:10 PM 80.5°F26.9°C 71.4°F21.9°C 74% Calm Calm -- 29.85 in1010.8 mb - 0.00 in0.0 mm 0.31 in7.9 mm
05:00 PM 81.1°F27.3°C 71.2°F21.8°C 72% Calm Calm -- 29.85 in1010.8 mb - 0.00 in0.0 mm 0.31 in7.9 mm
04:50 PM 81.9°F27.7°C 70.2°F21.2°C 68% Calm Calm -- 29.85 in1010.8 mb - 0.00 in0.0 mm 0.31 in7.9 mm
04:40 PM 83.1°F28.4°C 72.3°F22.4°C 70% Calm Calm 1.2 mph1.9 kmh 29.85 in1010.8 mb - 0.00 in0.0 mm 0.31 in7.9 mm
04:30 PM 83.9°F28.8°C 73.1°F22.8°C 70% Calm Calm -- 29.85 in1010.8 mb - 0.00 in0.0 mm 0.31 in7.9 mm
04:20 PM 84.9°F29.4°C 73.6°F23.1°C 69% Calm Calm 1.2 mph1.9 kmh 29.85 in1010.8 mb - 0.00 in0.0 mm 0.31 in7.9 mm
04:10 PM 85.5°F29.7°C 73.3°F22.9°C 67% Calm Calm -- 29.85 in1010.8 mb - 0.00 in0.0 mm 0.31 in7.9 mm
04:00 PM 86.1°F30.1°C 73.4°F23.0°C 66% Calm Calm -- 29.85 in1010.8 mb - 0.00 in0.0 mm 0.31 in7.9 mm
03:50 PM 86.3°F30.2°C 72.2°F22.3°C 63% Calm Calm 2.3 mph3.7 kmh 29.85 in1010.8 mb - 0.00 in0.0 mm 0.31 in7.9 mm
03:40 PM 86.6°F30.3°C 71.0°F21.7°C 60% Calm Calm 3.5 mph5.6 kmh 29.85 in1010.8 mb - 0.00 in0.0 mm 0.31 in7.9 mm
03:30 PM 86.8°F30.4°C 70.8°F21.6°C 59% Calm Calm 2.3 mph3.7 kmh 29.85 in1010.8 mb - 0.00 in0.0 mm 0.31 in7.9 mm
03:20 PM 86.5°F30.3°C 71.9°F22.2°C 62% 1.2 mph N1.9 kmh N 3.5 mph5.6 kmh 29.85 in1010.8 mb - 0.00 in0.0 mm 0.31 in7.9 mm
03:10 PM 86.2°F30.1°C 72.1°F22.3°C 63% 1.2 mph N1.9 kmh N 3.5 mph5.6 kmh 29.86 in1011.2 mb - 0.00 in0.0 mm 0.31 in7.9 mm
03:00 PM 85.8°F29.9°C 72.7°F22.6°C 65% 1.2 mph N1.9 kmh N 3.5 mph5.6 kmh 29.86 in1011.2 mb - 0.00 in0.0 mm 0.31 in7.9 mm
02:50 PM 85.9°F29.9°C 73.2°F22.9°C 66% Calm Calm -- 29.85 in1010.8 mb - 0.00 in0.0 mm 0.31 in7.9 mm
02:40 PM 85.9°F29.9°C 73.2°F22.9°C 66% Calm Calm -- 29.85 in1010.8 mb - 0.00 in0.0 mm 0.31 in7.9 mm
02:30 PM 86.2°F30.1°C 71.6°F22.0°C 62% 1.2 mph NE1.9 kmh NE 3.5 mph5.6 kmh 29.86 in1011.2 mb - 0.00 in0.0 mm 0.31 in7.9 mm
02:20 PM 86.3°F30.2°C 73.1°F22.8°C 65% Calm Calm -- 29.85 in1010.8 mb - 0.00 in0.0 mm 0.31 in7.9 mm
02:10 PM 86.3°F30.2°C 71.3°F21.8°C 61% 1.2 mph NE1.9 kmh NE 3.5 mph5.6 kmh 29.85 in1010.8 mb - 0.00 in0.0 mm 0.31 in7.9 mm
02:00 PM 85.5°F29.7°C 70.1°F21.2°C 60% 1.2 mph WSW1.9 kmh WSW 2.3 mph3.7 kmh 29.85 in1010.8 mb - 0.00 in0.0 mm 0.31 in7.9 mm
01:50 PM 85.2°F29.6°C 70.7°F21.5°C 62% Calm Calm -- 29.85 in1010.8 mb - 0.00 in0.0 mm 0.31 in7.9 mm
01:40 PM 84.7°F29.3°C 72.1°F22.3°C 66% Calm Calm 2.3 mph3.7 kmh 29.85 in1010.8 mb - 0.00 in0.0 mm 0.31 in7.9 mm
01:30 PM 84.3°F29.1°C 71.2°F21.8°C 65% 2.3 mph ENE3.7 kmh ENE 3.5 mph5.6 kmh 29.85 in1010.8 mb - 0.00 in0.0 mm 0.31 in7.9 mm
01:20 PM 85.2°F29.6°C 71.6°F22.0°C 64% Calm Calm -- 29.85 in1010.8 mb - 0.00 in0.0 mm 0.31 in7.9 mm
01:10 PM 84.7°F29.3°C 71.6°F22.0°C 65% Calm Calm -- 29.85 in1010.8 mb - 0.00 in0.0 mm 0.31 in7.9 mm
01:00 PM 84.2°F29.0°C 71.6°F22.0°C 66% 1.2 mph N1.9 kmh N 3.5 mph5.6 kmh 29.85 in1010.8 mb - 0.00 in0.0 mm 0.31 in7.9 mm
12:50 PM 84.3°F29.1°C 71.2°F21.8°C 65% 1.2 mph NNW1.9 kmh NNW 3.5 mph5.6 kmh 29.85 in1010.8 mb - 0.00 in0.0 mm 0.31 in7.9 mm
12:40 PM 83.9°F28.8°C 69.9°F21.1°C 63% 2.3 mph N3.7 kmh N 3.5 mph5.6 kmh 29.85 in1010.8 mb - 0.00 in0.0 mm 0.31 in7.9 mm
12:30 PM 84.8°F29.3°C 71.7°F22.1°C 65% Calm Calm -- 29.85 in1010.8 mb - 0.00 in0.0 mm 0.31 in7.9 mm
12:20 PM 84.4°F29.1°C 72.7°F22.6°C 68% Calm Calm 2.3 mph3.7 kmh 29.85 in1010.8 mb - 0.00 in0.0 mm 0.31 in7.9 mm
12:10 PM 83.4°F28.6°C 70.8°F21.6°C 66% Calm Calm 2.3 mph3.7 kmh 29.85 in1010.8 mb - 0.00 in0.0 mm 0.31 in7.9 mm
12:00 PM 83.2°F28.4°C 72.8°F22.7°C 71% Calm Calm 2.3 mph3.7 kmh 29.85 in1010.8 mb - 0.00 in0.0 mm 0.31 in7.9 mm
11:50 AM 82.5°F28.1°C 72.6°F22.6°C 72% 1.2 mph WSW1.9 kmh WSW 3.5 mph5.6 kmh 29.85 in1010.8 mb - 0.00 in0.0 mm 0.31 in7.9 mm
11:40 AM 81.5°F27.5°C 72.8°F22.7°C 75% Calm Calm -- 29.84 in1010.5 mb - 0.00 in0.0 mm 0.31 in7.9 mm
11:30 AM 80.2°F26.8°C 71.5°F21.9°C 75% Calm Calm -- 29.85 in1010.8 mb - 0.00 in0.0 mm 0.31 in7.9 mm
11:20 AM 78.5°F25.8°C 69.9°F21.1°C 75% 1.2 mph NNE1.9 kmh NNE 2.3 mph3.7 kmh 29.86 in1011.2 mb - 0.00 in0.0 mm 0.31 in7.9 mm
11:10 AM 77.8°F25.4°C 70.4°F21.3°C 78% 2.3 mph SSW3.7 kmh SSW 3.5 mph5.6 kmh 29.85 in1010.8 mb - 0.00 in0.0 mm 0.31 in7.9 mm
11:00 AM 77.3°F25.2°C 70.3°F21.3°C 79% 1.2 mph NE1.9 kmh NE 3.5 mph5.6 kmh 29.85 in1010.8 mb - 0.00 in0.0 mm 0.31 in7.9 mm
10:50 AM 77.2°F25.1°C 70.2°F21.2°C 79% 1.2 mph SSW1.9 kmh SSW 3.5 mph5.6 kmh 29.85 in1010.8 mb - 0.00 in0.0 mm 0.31 in7.9 mm
10:40 AM 75.7°F24.3°C 70.5°F21.4°C 84% Calm Calm -- 29.85 in1010.8 mb - 0.00 in0.0 mm 0.31 in7.9 mm
10:30 AM 74.6°F23.7°C 70.5°F21.4°C 87% Calm Calm 1.2 mph1.9 kmh 29.85 in1010.8 mb - 0.00 in0.0 mm 0.31 in7.9 mm
10:20 AM 73.0°F22.8°C 70.2°F21.2°C 91% Calm Calm -- 29.85 in1010.8 mb - 0.00 in0.0 mm 0.31 in7.9 mm
10:10 AM 71.8°F22.1°C 69.7°F20.9°C 93% Calm Calm 1.2 mph1.9 kmh 29.85 in1010.8 mb - 0.00 in0.0 mm 0.31 in7.9 mm
10:00 AM 71.1°F21.7°C 69.9°F21.1°C 96% Calm Calm -- 29.85 in1010.8 mb - 0.00 in0.0 mm 0.31 in7.9 mm
09:50 AM 70.5°F21.4°C 69.6°F20.9°C 97% Calm Calm -- 29.84 in1010.5 mb - 0.31 in7.9 mm 0.31 in7.9 mm
09:40 AM 69.9°F21.1°C 69.3°F20.7°C 98% Calm Calm -- 29.84 in1010.5 mb - 0.00 in0.0 mm 0.00 in0.0 mm
09:30 AM 69.3°F20.7°C 69.0°F20.6°C 99% Calm Calm -- 29.84 in1010.5 mb - 0.00 in0.0 mm 0.00 in0.0 mm
09:20 AM 69.2°F20.7°C 68.9°F20.5°C 99% Calm Calm 1.2 mph1.9 kmh 29.84 in1010.5 mb - 0.00 in0.0 mm 0.00 in0.0 mm
09:10 AM 69.5°F20.8°C 69.2°F20.7°C 99% Calm Calm -- 29.84 in1010.5 mb - 0.00 in0.0 mm 0.00 in0.0 mm
09:00 AM 69.0°F20.6°C 68.7°F20.4°C 99% Calm Calm -- 29.83 in1010.2 mb - 0.00 in0.0 mm 0.00 in0.0 mm
08:50 AM 68.2°F20.1°C 67.9°F19.9°C 99% Calm Calm -- 29.84 in1010.5 mb - 0.00 in0.0 mm 0.00 in0.0 mm
08:40 AM 67.7°F19.8°C 67.4°F19.7°C 99% Calm Calm -- 29.83 in1010.2 mb - 0.00 in0.0 mm 0.00 in0.0 mm
08:30 AM 67.3°F19.6°C 67.0°F19.4°C 99% Calm Calm 2.3 mph3.7 kmh 29.83 in1010.2 mb - 0.00 in0.0 mm 0.00 in0.0 mm
08:20 AM 66.7°F19.3°C 66.5°F19.2°C 99% Calm Calm 1.2 mph1.9 kmh 29.83 in1010.2 mb - 0.00 in0.0 mm 0.00 in0.0 mm
08:10 AM 66.4°F19.1°C 66.1°F18.9°C 99% Calm Calm 1.2 mph1.9 kmh 29.83 in1010.2 mb - 0.00 in0.0 mm 0.00 in0.0 mm
08:00 AM 65.3°F18.5°C 65.1°F18.4°C 99% Calm Calm -- 29.83 in1010.2 mb - 0.00 in0.0 mm 0.00 in0.0 mm
07:50 AM 64.6°F18.1°C 64.3°F17.9°C 99% Calm Calm -- 29.82 in1009.8 mb - 0.00 in0.0 mm 0.00 in0.0 mm
07:40 AM 64.2°F17.9°C 63.9°F17.7°C 99% Calm Calm -- 29.82 in1009.8 mb - 0.00 in0.0 mm 0.00 in0.0 mm
07:30 AM 63.9°F17.7°C 63.3°F17.4°C 98% Calm Calm -- 29.82 in1009.8 mb - 0.00 in0.0 mm 0.00 in0.0 mm
07:20 AM 63.8°F17.7°C 63.2°F17.3°C 98% Calm Calm -- 29.82 in1009.8 mb - 0.00 in0.0 mm 0.00 in0.0 mm
07:10 AM 63.5°F17.5°C 62.9°F17.2°C 98% Calm Calm -- 29.81 in1009.5 mb - 0.00 in0.0 mm 0.00 in0.0 mm
07:00 AM 63.2°F17.3°C 62.6°F17.0°C 98% Calm Calm -- 29.82 in1009.8 mb - 0.00 in0.0 mm 0.00 in0.0 mm
06:50 AM 63.1°F17.3°C 62.5°F16.9°C 98% Calm Calm -- 29.81 in1009.5 mb - 0.00 in0.0 mm 0.00 in0.0 mm
06:40 AM 63.1°F17.3°C 62.5°F16.9°C 98% Calm Calm -- 29.81 in1009.5 mb - 0.00 in0.0 mm 0.00 in0.0 mm
06:30 AM 63.1°F17.3°C 62.5°F16.9°C 98% Calm Calm -- 29.81 in1009.5 mb - 0.00 in0.0 mm 0.00 in0.0 mm
06:20 AM 63.2°F17.3°C 62.6°F17.0°C 98% Calm Calm -- 29.80 in1009.1 mb - 0.00 in0.0 mm 0.00 in0.0 mm
06:10 AM 63.3°F17.4°C 62.7°F17.1°C 98% Calm Calm -- 29.80 in1009.1 mb - 0.00 in0.0 mm 0.00 in0.0 mm
06:00 AM 63.4°F17.4°C 62.8°F17.1°C 98% Calm Calm -- 29.80 in1009.1 mb - 0.00 in0.0 mm 0.00 in0.0 mm
05:50 AM 63.4°F17.4°C 62.8°F17.1°C 98% Calm Calm -- 29.80 in1009.1 mb - 0.00 in0.0 mm 0.00 in0.0 mm
05:40 AM 63.2°F17.3°C 62.6°F17.0°C 98% Calm Calm -- 29.80 in1009.1 mb - 0.00 in0.0 mm 0.00 in0.0 mm
05:30 AM 63.1°F17.3°C 62.5°F16.9°C 98% Calm Calm -- 29.80 in1009.1 mb - 0.00 in0.0 mm 0.00 in0.0 mm
05:20 AM 63.0°F17.2°C 62.4°F16.9°C 98% Calm Calm -- 29.79 in1008.8 mb - 0.00 in0.0 mm 0.00 in0.0 mm
05:10 AM 63.0°F17.2°C 62.4°F16.9°C 98% Calm Calm -- 29.79 in1008.8 mb - 0.00 in0.0 mm 0.00 in0.0 mm
05:00 AM 62.9°F17.2°C 62.0°F16.7°C 97% Calm Calm -- 29.79 in1008.8 mb - 0.00 in0.0 mm 0.00 in0.0 mm
04:50 AM 63.0°F17.2°C 62.1°F16.7°C 97% Calm Calm -- 29.78 in1008.5 mb - 0.00 in0.0 mm 0.00 in0.0 mm
04:40 AM 63.2°F17.3°C 62.3°F16.8°C 97% Calm Calm -- 29.77 in1008.1 mb - 0.00 in0.0 mm 0.00 in0.0 mm
04:30 AM 63.4°F17.4°C 62.5°F16.9°C 97% Calm Calm -- 29.78 in1008.5 mb - 0.00 in0.0 mm 0.00 in0.0 mm
04:20 AM 63.5°F17.5°C 62.6°F17.0°C 97% Calm Calm -- 29.79 in1008.8 mb - 0.00 in0.0 mm 0.00 in0.0 mm
04:10 AM 63.7°F17.6°C 62.8°F17.1°C 97% Calm Calm -- 29.79 in1008.8 mb - 0.00 in0.0 mm 0.00 in0.0 mm
04:00 AM 63.8°F17.7°C 62.9°F17.2°C 97% Calm Calm -- 29.79 in1008.8 mb - 0.00 in0.0 mm 0.00 in0.0 mm
03:50 AM 63.9°F17.7°C 63.1°F17.3°C 97% Calm Calm -- 29.79 in1008.8 mb - 0.00 in0.0 mm 0.00 in0.0 mm
03:40 AM 64.1°F17.8°C 63.2°F17.3°C 97% Calm Calm -- 29.79 in1008.8 mb - 0.00 in0.0 mm 0.00 in0.0 mm
03:30 AM 64.2°F17.9°C 63.3°F17.4°C 97% Calm Calm -- 29.78 in1008.5 mb - 0.00 in0.0 mm 0.00 in0.0 mm
03:20 AM 64.4°F18.0°C 63.5°F17.5°C 97% Calm Calm -- 29.78 in1008.5 mb - 0.00 in0.0 mm 0.00 in0.0 mm
03:10 AM 64.6°F18.1°C 63.7°F17.6°C 97% Calm Calm -- 29.79 in1008.8 mb - 0.00 in0.0 mm 0.00 in0.0 mm
03:00 AM 64.7°F18.2°C 64.1°F17.8°C 98% Calm Calm -- 29.79 in1008.8 mb - 0.00 in0.0 mm 0.00 in0.0 mm
02:50 AM 64.8°F18.2°C 63.9°F17.7°C 97% Calm Calm -- 29.79 in1008.8 mb - 0.00 in0.0 mm 0.00 in0.0 mm
02:40 AM 64.9°F18.3°C 64.0°F17.8°C 97% Calm Calm -- 29.79 in1008.8 mb - 0.00 in0.0 mm 0.00 in0.0 mm
02:30 AM 64.9°F18.3°C 64.0°F17.8°C 97% Calm Calm -- 29.79 in1008.8 mb - 0.00 in0.0 mm 0.00 in0.0 mm
02:20 AM 64.9°F18.3°C 64.0°F17.8°C 97% Calm Calm -- 29.79 in1008.8 mb - 0.00 in0.0 mm 0.00 in0.0 mm
02:10 AM 65.0°F18.3°C 64.1°F17.8°C 97% Calm Calm -- 29.79 in1008.8 mb - 0.00 in0.0 mm 0.00 in0.0 mm
02:00 AM 65.1°F18.4°C 64.2°F17.9°C 97% Calm Calm -- 29.79 in1008.8 mb - 0.00 in0.0 mm 0.00 in0.0 mm
01:50 AM 65.3°F18.5°C 64.4°F18.0°C 97% Calm Calm -- 29.79 in1008.8 mb - 0.00 in0.0 mm 0.00 in0.0 mm
01:40 AM 65.4°F18.6°C 64.5°F18.1°C 97% Calm Calm -- 29.79 in1008.8 mb - 0.00 in0.0 mm 0.00 in0.0 mm
01:30 AM 65.6°F18.7°C 64.7°F18.2°C 97% Calm Calm -- 29.79 in1008.8 mb - 0.00 in0.0 mm 0.00 in0.0 mm
01:20 AM 65.7°F18.7°C 64.8°F18.2°C 97% Calm Calm -- 29.79 in1008.8 mb - 0.00 in0.0 mm 0.00 in0.0 mm
01:10 AM 65.9°F18.8°C 65.0°F18.3°C 97% Calm Calm -- 29.79 in1008.8 mb - 0.00 in0.0 mm 0.00 in0.0 mm
01:00 AM 66.0°F18.9°C 65.1°F18.4°C 97% Calm Calm -- 29.79 in1008.8 mb - 0.00 in0.0 mm 0.00 in0.0 mm
12:50 AM 66.1°F18.9°C 65.2°F18.4°C 97% Calm Calm -- 29.79 in1008.8 mb - 0.00 in0.0 mm 0.00 in0.0 mm
12:40 AM 66.2°F19.0°C 65.3°F18.5°C 97% Calm Calm -- 29.79 in1008.8 mb - 0.00 in0.0 mm 0.00 in0.0 mm
12:30 AM 66.3°F19.1°C 65.4°F18.6°C 97% Calm Calm -- 29.80 in1009.1 mb - 0.00 in0.0 mm 0.00 in0.0 mm
12:20 AM 66.4°F19.1°C 65.5°F18.6°C 97% Calm Calm -- 29.80 in1009.1 mb - 0.00 in0.0 mm 0.00 in0.0 mm
12:10 AM 66.5°F19.2°C 65.6°F18.7°C 97% Calm Calm -- 29.80 in1009.1 mb - 0.00 in0.0 mm 0.00 in0.0 mm
12:00 AM 66.6°F19.2°C 65.7°F18.7°C 97% Calm Calm -- 29.80 in1009.1 mb - 0.00 in0.0 mm 0.00 in0.0 mm